WetterOnline ( https://www.wetteronline.de )

Wetter aktuell Halberstadt

Aktuelles Wetter: Wernigerode (240m)

6-stündlich | Neueste Meldungen
Ortszeit Temperatur Wetter
Do, 19.05. 20:00 18.8° C bewölkt
Do, 19.05. 14:00 27.0° C fast wolkenlos
Do, 19.05. 8:00 21.6° C wolkig
Do, 19.05. 2:00 20.3° C wolkig
Mi, 18.05. 20:00 23.5° C bewölkt
Mi, 18.05. 14:00 24.6° C bewölkt
Mi, 18.05. 8:00 17.8° C bedeckt
Mi, 18.05. 2:00 17.1° C bewölkt
Ortszeit Temperatur Wetter
Do, 19.05. 21:00 18.8° C leichter Regen
Do, 19.05. 20:50 18.8° C leichter Regen
Do, 19.05. 20:40 18.4° C leichter Regen
Do, 19.05. 20:30 18.7° C leichter Regen
Do, 19.05. 20:20 18.7° C leichter Regen
Do, 19.05. 20:10 18.7° C leichter Regen
Do, 19.05. 20:00 18.8° C bewölkt
Do, 19.05. 19:30 20.9° C bewölkt
Do, 19.05. 19:00 26.1° C bedeckt
Do, 19.05. 18:30 26.4° C bedeckt
Do, 19.05. 18:00 27.1° C bedeckt
Ortszeit Relative Feuchte Sichtweite
Do, 19.05. 20:00 74% 50 km
Do, 19.05. 14:00 32% 50 km
Do, 19.05. 8:00 49% 45 km
Do, 19.05. 2:00 54% 50 km
Mi, 18.05. 20:00 51% 19 km
Mi, 18.05. 14:00 47% 65 km
Mi, 18.05. 8:00 68% 40 km
Mi, 18.05. 2:00 78% 35 km
Ortszeit Relative Feuchte Sichtweite
Do, 19.05. 21:00 75% 45 km
Do, 19.05. 20:50 75% -
Do, 19.05. 20:40 80% -
Do, 19.05. 20:30 74% 45 km
Do, 19.05. 20:20 74% -
Do, 19.05. 20:10 75% -
Do, 19.05. 20:00 74% 50 km
Do, 19.05. 19:30 60% 40 km
Do, 19.05. 19:00 38% 60 km
Do, 19.05. 18:30 36% 50 km
Do, 19.05. 18:00 36% >70 km
Ortszeit Niederschlagsmenge Niederschlagsart
Do, 19.05. 20:00 0.4 l/m2 in 12 Std. Regen
Do, 19.05. 14:00 0.0 l/m2 in 6 Std. -
Do, 19.05. 8:00 0.0 l/m2 in 12 Std. -
Do, 19.05. 2:00 0.0 l/m2 in 6 Std. -
Mi, 18.05. 20:00 0.1 l/m2 in 12 Std. Regen
Mi, 18.05. 14:00 0.0 l/m2 in 6 Std. -
Mi, 18.05. 8:00 0.0 l/m2 in 12 Std. -
Mi, 18.05. 2:00 0.0 l/m2 in 6 Std. -
Ortszeit Niederschlagsmenge Niederschlagsart
Do, 19.05. 21:00 0.1 l/m2 in 1 Std. Regen
Do, 19.05. 20:50 keine Meldung -
Do, 19.05. 20:40 keine Meldung -
Do, 19.05. 20:30 0.1 l/m2 in 1 Std. -
Do, 19.05. 20:20 keine Meldung -
Do, 19.05. 20:10 keine Meldung -
Do, 19.05. 20:00 0.4 l/m2 in 1 Std. Regen
Do, 19.05. 19:30 0.0 l/m2 in 1 Std. -
Do, 19.05. 19:00 0.0 l/m2 in 1 Std. -
Do, 19.05. 18:30 0.0 l/m2 in 1 Std. -
Do, 19.05. 18:00 0.0 l/m2 in 1 Std. -
Ortszeit Stärke Spitze Richtung
km/h Bft. km/h Grad Sektor
Do, 19.05. 20:00 13 3 72 290° W
Do, 19.05. 14:00 22 4 36 180° S
Do, 19.05. 8:00 15 3 30 220° SW
Do, 19.05. 2:00 15 3 26 220° SW
Mi, 18.05. 20:00 7 2 25 170° S
Mi, 18.05. 14:00 7 2 29 140° SO
Mi, 18.05. 8:00 4 1 14 110° O
Mi, 18.05. 2:00 0 0 18 - -
Ortszeit Stärke Spitze Richtung
km/h Bft. km/h Grad Sektor
Do, 19.05. 21:00 9 2 19 140° SO
Do, 19.05. 20:50 9 2 - 140° SO
Do, 19.05. 20:40 4 1 - 130° SO
Do, 19.05. 20:30 7 2 14 310° NW
Do, 19.05. 20:20 7 2 - 310° NW
Do, 19.05. 20:10 7 2 - 300° NW
Do, 19.05. 20:00 13 3 72 290° W
Do, 19.05. 19:30 37 5 72 300° NW
Do, 19.05. 19:00 7 2 29 260° W
Do, 19.05. 18:30 11 2 29 210° SW
Do, 19.05. 18:00 14 3 29 180° S
Ortszeit Untergrenze Bedeckung Gattung
total tief tief mittel hoch
Do, 19.05. 20:00 2100 m 7/8 7/8 - - -
Do, 19.05. 14:00 9000 m 2/8 0/8 - - -
Do, 19.05. 8:00 7800 m 8/8 0/8 - - -
Do, 19.05. 2:00 7800 m 8/8 0/8 - - -
Mi, 18.05. 20:00 1800 m 7/8 7/8 - - -
Mi, 18.05. 14:00 1500 m 7/8 7/8 - - -
Mi, 18.05. 8:00 3300 m 8/8 8/8 - - -
Mi, 18.05. 2:00 1170 m 8/8 4/8 - - -
Ortszeit Bedeckungsgrad in Achtel und Wolkenuntergrenze
Do, 19.05. 21:00 8(3000m)
Do, 19.05. 20:50 8(3000m)
Do, 19.05. 20:40 8
Do, 19.05. 20:30 8(3000m)
Do, 19.05. 20:20 8(3000m)
Do, 19.05. 20:10 7
Do, 19.05. 20:00 3(2100m) 7(2700m)
Do, 19.05. 19:30 4(2100m) 7(2700m) 8(7800m)
Do, 19.05. 19:00 7(3000m) 8(5400m) 8(6600m)
Do, 19.05. 18:30 3(3000m) 6(3900m) 8(5100m)
Do, 19.05. 18:00 4(5100m) 8(6900m) 8(7500m)
Ortszeit Luftdruck NN (hPa) Tendenz (hPa in 3 Std.)
Do, 19.05. 20:00 1019 + 2,2
Do, 19.05. 14:00 1018 - 1,6
Do, 19.05. 8:00 1021 + 0,3
Do, 19.05. 2:00 1021 - 0,6
Mi, 18.05. 20:00 1021 - 0,2
Mi, 18.05. 14:00 1022 - 0,5
Mi, 18.05. 8:00 1023 + 0,9
Mi, 18.05. 2:00 1022 + 0,2
Ortszeit Luftdruck NN (hPa) Tendenz (hPa in 3 Std.)
Do, 19.05. 21:00 1018 + 0,6
Do, 19.05. 20:50 1018 keine Meldung
Do, 19.05. 20:40 1018 keine Meldung
Do, 19.05. 20:30 1019 + 1,7
Do, 19.05. 20:20 1019 keine Meldung
Do, 19.05. 20:10 1019 keine Meldung
Do, 19.05. 20:00 1019 + 2,2
Do, 19.05. 19:30 1020 + 2,5
Do, 19.05. 19:00 1017 - 0,1
Do, 19.05. 18:30 1016 - 0,9
Do, 19.05. 18:00 1016 - 1,0
Ortszeit Schneehöhe (cm)
Do, 19.05. 20:00 0
Do, 19.05. 14:00 0
Do, 19.05. 8:00 0
Do, 19.05. 2:00 0
Mi, 18.05. 20:00 0
Mi, 18.05. 14:00 0
Mi, 18.05. 8:00 0
Mi, 18.05. 2:00 0
Ortszeit Schneehöhe (cm)
Do, 19.05. 21:00 0
Do, 19.05. 20:50 0
Do, 19.05. 20:40 0
Do, 19.05. 20:30 0
Do, 19.05. 20:20 0
Do, 19.05. 20:10 0
Do, 19.05. 20:00 0
Do, 19.05. 19:30 0
Do, 19.05. 19:00 0
Do, 19.05. 18:30 0
Do, 19.05. 18:00 0
Link zu dieser Seite / Seite empfehlen

Das Wetter in ...